Albertville, AL (35950)

11:36 AM CST on January 16, 2017 (GMT -0600)
Near Airport | | Change Station

Elev 1020 ft 34.24 °N, 86.23 °W | Updated 37 minutes ago

Overcast
Overcast
65.1 °F
Feels Like 65.1 °F
N
6.9
Wind Variable Wind from SSE
Gusts 6.9 mph

Today
High -- | Low -- °F
--% Chance of Precip.
Yesterday
High -- | Low -- °F
Precip. -- in
Pressure 30.34 in
Visibility 10.0 miles
Clouds Overcast 8000 ft
Dew Point 56 °F
Humidity 71%
Rainfall 0.00 in
Snow Depth Not available.
6:50 AM 4:59 PM
Waning Gibbous, 79% visible
METAR KGAD 161656Z AUTO 09005KT 10SM OVC080 17/11 A3028 RMK AO2 PRESFR SLP274 T01670111
Pressure 30.34 in
Visibility 10.0 miles
Clouds Overcast 8000 ft
Dew Point 56 °F
Humidity 71%
Rainfall 0.00 in
Snow Depth Not available.
6:50 AM 4:59 PM
Waning Gibbous, 79% visible
METAR KGAD 161656Z AUTO 09005KT 10SM OVC080 17/11 A3028 RMK AO2 PRESFR SLP274 T01670111

Get Your Daily Forecast Email!

Thanks for signing up!

Be on the lookout for a verification email in your inbox.

You'll start receiving the daily forecast at 8 AM.

×

10-Day Weather Forecast

Almanac

Astronomy

Jan. 16, 2017 Rise Set
Actual Time
Civil Twilight
Nautical Twilight
Astronomical Twilight
Moon
Length of Visible Light
Length of Day
Tomorrow will be .
, % of the Moon is Illuminated

Today's Extremes

State Highs State Lows

Community

WunderPhotos

Upload Photos

1,962,540 photos uploaded!

WunderBlog® & News

Nearby

Air Quality

  Air Quality AQ Index Pollutant
Not available.

Snow Depth

Station Depth Elevation

Earthquake Activity

City Distance Mag. Time & Date
Minimum magnitude displayed is 2.5.

Coastal Water Temperatures

Place Temperature

Stations

Nearby Weather Stations

Station Location Temp. Windchill Dew Point Humidity Wind Precip. Elev Updated Type
                   

Watches & Warnings

There are currently no watches in effect.